This is the latest recevied weather packets stored in our database for station/object AA7VG. If no packets are shown the sender has not sent any weather packets the latest 1 day(s).
| Time | Temp. | Humidity | Pressure | Rain* | Wind** | Luminosity | Snow |
|---|---|---|---|---|---|---|---|
| 1778051556 | 0° C | 68% | 1018.5 hPa | 0 mm | - | - | - |
| 1778050344 | 0.56° C | 66% | 1018.4 hPa | 0 mm | - | - | - |
| 1778050041 | 0.56° C | 67% | 1018.4 hPa | 0 mm | - | - | - |
| 1778047619 | 1.67° C | 57% | 1018.3 hPa | 0 mm | - | - | - |
| 1778047315 | 1.11° C | 58% | 1018.4 hPa | 0 mm | - | - | - |
| 1778046709 | 1.11° C | 59% | 1018.6 hPa | 0 mm | - | - | - |
| 1778046102 | 0.56° C | 60% | 1018.6 hPa | 0 mm | - | - | - |
| 1778045800 | 0.56° C | 60% | 1018.6 hPa | 0 mm | - | - | - |
| 1778044894 | 0.56° C | 58% | 1018.3 hPa | 0 mm | - | - | - |
| 1778044591 | 0.56° C | 58% | 1018.6 hPa | 0 mm | - | - | - |
| 1778044287 | 0.56° C | 59% | 1018.6 hPa | 0 mm | - | - | - |
| 1778043985 | 0.56° C | 58% | 1018.4 hPa | 0 mm | - | - | - |
| 1778043682 | 1.11° C | 57% | 1018.4 hPa | 0 mm | - | - | - |
| 1778043379 | 1.67° C | 55% | 1018.4 hPa | 0 mm | - | - | - |
| 1778043075 | 1.67° C | 55% | 1018.4 hPa | 0 mm | - | - | - |
| 1778042470 | 1.67° C | 53% | 1018.5 hPa | 0 mm | - | - | - |
| 1778042167 | 1.67° C | 53% | 1018.6 hPa | 0 mm | - | - | - |
| 1778041865 | 1.67° C | 52% | 1018.5 hPa | 0 mm | - | - | - |
| 1778041564 | 2.22° C | 51% | 1018.5 hPa | 0 mm | - | - | - |
| 1778041262 | 2.22° C | 51% | 1018.5 hPa | 0 mm | - | - | - |
| 1778040354 | 2.78° C | 48% | 1018.5 hPa | 0 mm | - | - | - |
| 1778039444 | 2.22° C | 49% | 1018.3 hPa | 0 mm | - | - | - |
| 1778038838 | 2.78° C | 48% | 1018.2 hPa | 0 mm | - | - | - |
| 1778038536 | 2.78° C | 46% | 1018.2 hPa | 0 mm | - | - | - |
| 1778037930 | 3.33° C | 45% | 1018.2 hPa | 0 mm | - | - | - |
* Rain latest hour (hover to see other rain measurements)
** Current wind speed in m/s (hover to see current wind gust speed)